Time;durP1;ratioP1;P1;durP2;ratioP2;P2;SDS_P1;SDS_P2;PMS_P1;PMS_P2;Temp;Humidity;BMP_temperature;BMP_pressure;BME280_temperature;BME280_humidity;BME280_pressure;Samples;Min_cycle;Max_cycle;Signal;HPM_P1;HPM_P2
2021/12/17 00:04:37;;;;;;;31.67;21.00;;;1.00;99.90;;;;;;5013110;28;20161;-67
2021/12/17 00:07:10;;;;;;;31.35;20.20;;;1.00;99.90;;;;;;5012184;28;20131;-66
2021/12/17 00:09:39;;;;;;;31.90;19.92;;;1.00;99.90;;;;;;5012983;28;20045;-67
2021/12/17 00:12:10;;;;;;;31.77;20.35;;;1.00;99.90;;;;;;5011648;28;20469;-67
2021/12/17 00:14:43;;;;;;;28.45;19.05;;;1.00;99.90;;;;;;5013055;28;20488;-67
2021/12/17 00:17:14;;;;;;;31.25;20.17;;;1.00;99.90;;;;;;5010817;28;20053;-67
2021/12/17 00:20:21;;;;;;;27.48;17.55;;;1.00;99.90;;;;;;5012418;28;20050;-67
2021/12/17 00:50:48;;;;;;;36.70;21.77;;;0.90;99.90;;;;;;4997816;28;20092;-66
2021/12/17 00:53:16;;;;;;;36.93;23.20;;;0.90;99.90;;;;;;4995592;28;20072;-66
2021/12/17 00:55:42;;;;;;;34.22;21.48;;;0.90;99.90;;;;;;4996722;28;20053;-67
2021/12/17 00:58:09;;;;;;;;;;;0.80;99.90;;;;;;4994748;28;20072;-68
2021/12/17 01:00:36;;;;;;;34.42;21.70;;;0.80;99.90;;;;;;5011564;28;20324;-67
2021/12/17 01:03:03;;;;;;;36.78;21.67;;;0.80;99.90;;;;;;5014084;28;20533;-68
2021/12/17 01:05:31;;;;;;;39.65;23.83;;;0.80;99.90;;;;;;5016058;28;20100;-67
2021/12/17 01:08:01;;;;;;;36.95;22.35;;;0.80;99.90;;;;;;5014252;28;20053;-67
2021/12/17 01:10:34;;;;;;;32.22;19.92;;;0.80;99.90;;;;;;5013427;28;20053;-66
2021/12/17 01:13:24;;;;;;;34.50;21.70;;;0.80;99.90;;;;;;5012330;28;20642;-66
2021/12/17 01:16:20;;;;;;;33.17;20.10;;;0.80;99.90;;;;;;4994117;28;20064;-67
2021/12/17 01:24:37;;;;;;;29.52;18.73;;;0.80;99.90;;;;;;5014253;28;20041;-66
2021/12/17 01:36:21;;;;;;;31.77;20.40;;;0.70;99.90;;;;;;5012862;28;20064;-67
2021/12/17 01:42:04;;;;;;;34.75;20.65;;;0.70;99.90;;;;;;5013834;28;20097;-66
2021/12/17 01:44:37;;;;;;;35.78;22.30;;;0.70;99.90;;;;;;5013060;28;20535;-68
2021/12/17 01:47:09;;;;;;;31.73;19.40;;;0.70;99.90;;;;;;5001906;28;20406;-67
2021/12/17 02:00:49;;;;;;;36.30;21.95;;;0.60;99.90;;;;;;5010047;28;20049;-66
2021/12/17 02:03:17;;;;;;;32.03;20.48;;;0.60;99.90;;;;;;5008014;28;20050;-66
2021/12/17 02:05:45;;;;;;;35.88;22.48;;;0.50;99.90;;;;;;4993098;28;20053;-66
2021/12/17 02:08:12;;;;;;;36.03;21.40;;;0.50;99.90;;;;;;4993542;28;20184;-67
2021/12/17 02:32:26;;;;;;;48.95;24.83;;;0.40;99.90;;;;;;5011162;28;20525;-66
2021/12/17 02:37:25;;;;;;;37.88;20.38;;;0.30;99.90;;;;;;5012158;28;20068;-69
2021/12/17 02:45:57;;;;;;;41.03;22.63;;;0.30;99.90;;;;;;5012476;28;20102;-67
2021/12/17 02:48:24;;;;;;;42.92;22.33;;;0.30;99.90;;;;;;5009971;28;20398;-67
2021/12/17 02:50:55;;;;;;;40.90;21.73;;;0.20;99.90;;;;;;5012219;28;20064;-67
2021/12/17 02:53:23;;;;;;;39.85;21.17;;;0.20;99.90;;;;;;5012232;28;20057;-67
2021/12/17 02:55:54;;;;;;;37.92;21.25;;;0.20;99.90;;;;;;5013543;28;20053;-67
2021/12/17 02:58:23;;;;;;;41.45;22.08;;;0.10;99.90;;;;;;5013686;28;20338;-67
2021/12/17 03:00:51;;;;;;;39.28;21.27;;;0.10;99.90;;;;;;5012806;28;20041;-67
2021/12/17 03:03:20;;;;;;;36.72;19.75;;;0.10;99.90;;;;;;5012329;28;20073;-67
2021/12/17 03:05:49;;;;;;;34.75;20.13;;;0.10;99.90;;;;;;5012612;28;20048;-67
2021/12/17 03:08:17;;;;;;;34.17;20.65;;;0.10;99.90;;;;;;5014881;28;20152;-67
2021/12/17 03:10:47;;;;;;;37.58;22.48;;;0.10;99.90;;;;;;5010138;28;20107;-66
2021/12/17 03:13:16;;;;;;;40.88;21.13;;;0.10;99.90;;;;;;5014441;28;20049;-67
2021/12/17 03:18:57;;;;;;;37.10;19.95;;;0.10;99.90;;;;;;5005462;28;20502;-67
2021/12/17 03:24:09;;;;;;;35.47;19.65;;;0.10;99.90;;;;;;5012149;28;20057;-66
2021/12/17 03:26:36;;;;;;;;;;;0.10;99.90;;;;;;5013828;28;20717;-67
2021/12/17 03:29:07;;;;;;;29.65;16.45;;;0.20;99.90;;;;;;5012831;28;19932;-67
2021/12/17 03:31:38;;;;;;;33.72;19.63;;;0.20;99.90;;;;;;5011768;28;20045;-66
2021/12/17 03:34:19;;;;;;;37.08;20.45;;;0.20;99.90;;;;;;5010303;28;20738;-66
2021/12/17 03:36:54;;;;;;;35.80;20.73;;;0.20;99.90;;;;;;5011347;28;20053;-67
2021/12/17 03:39:27;;;;;;;38.92;22.08;;;0.20;99.90;;;;;;5010651;28;20052;-66
2021/12/17 03:41:56;;;;;;;44.25;23.40;;;0.20;99.90;;;;;;4995590;28;20136;-66
2021/12/17 03:44:41;;;;;;;41.70;22.50;;;0.20;99.90;;;;;;5011753;28;20717;-68
2021/12/17 03:47:27;;;;;;;42.78;22.80;;;0.20;99.90;;;;;;5011972;28;20060;-66
2021/12/17 03:50:14;;;;;;;;;;;0.20;99.90;;;;;;4993727;28;20378;-66
2021/12/17 03:52:41;;;;;;;37.80;21.13;;;0.20;99.90;;;;;;4991887;28;19932;-67
2021/12/17 03:55:08;;;;;;;44.90;23.90;;;0.10;99.90;;;;;;4993529;28;20054;-66
2021/12/17 03:57:40;;;;;;;40.25;22.73;;;0.10;99.90;;;;;;4991571;28;20054;-66
2021/12/17 04:00:08;;;;;;;;;;;0.10;99.90;;;;;;5002986;28;20257;-67
2021/12/17 04:02:42;;;;;;;45.53;22.98;;;0.10;99.90;;;;;;5006297;28;20039;-66
2021/12/17 04:05:14;;;;;;;40.63;22.40;;;0.10;99.90;;;;;;5011788;28;20045;-66
2021/12/17 04:07:40;;;;;;;;;;;0.10;99.90;;;;;;5013371;28;20139;-67
2021/12/17 04:10:07;;;;;;;38.95;20.70;;;0.10;99.90;;;;;;5011536;28;19929;-60
2021/12/17 04:12:54;;;;;;;42.60;22.30;;;0.10;99.90;;;;;;5011927;28;20741;-60
2021/12/17 04:15:58;;;;;;;35.97;21.00;;;0.10;99.90;;;;;;5011444;28;20057;-60
2021/12/17 04:18:15;;;;;;;40.13;21.95;;;0.20;99.90;;;;;;5009284;28;20053;-60
2021/12/17 04:20:42;;;;;;;41.22;22.95;;;0.20;99.90;;;;;;4998088;28;20076;-60
2021/12/17 04:23:09;;;;;;;43.53;23.15;;;0.20;99.90;;;;;;5015177;28;20051;-60
2021/12/17 04:25:36;;;;;;;;;;;0.20;99.90;;;;;;5018724;28;20107;-59
2021/12/17 04:28:04;;;;;;;43.50;25.02;;;0.20;99.90;;;;;;5017562;28;20379;-60
2021/12/17 04:30:32;;;;;;;42.15;24.83;;;0.20;99.90;;;;;;5016327;28;20432;-60
2021/12/17 04:32:59;;;;;;;42.30;24.08;;;0.20;99.90;;;;;;5016336;28;20064;-59
2021/12/17 04:35:28;;;;;;;46.65;25.58;;;0.20;99.90;;;;;;5018191;28;20045;-59
2021/12/17 04:37:58;;;;;;;44.55;25.15;;;0.20;99.90;;;;;;5016793;28;20519;-60
2021/12/17 04:40:26;;;;;;;37.70;21.73;;;0.20;99.90;;;;;;5017906;28;20053;-59
2021/12/17 04:43:10;;;;;;;41.35;22.85;;;0.30;99.90;;;;;;5017230;28;20041;-60
2021/12/17 04:45:48;;;;;;;38.97;22.92;;;0.20;99.90;;;;;;5017740;28;20053;-59
2021/12/17 04:59:41;;;;;;;40.88;23.05;;;0.30;99.90;;;;;;4992701;28;20037;-60
2021/12/17 05:02:07;;;;;;;39.03;21.30;;;0.30;99.90;;;;;;5012650;28;20045;-60
2021/12/17 05:04:47;;;;;;;40.15;21.90;;;0.30;99.90;;;;;;4997313;28;20100;-60
2021/12/17 05:07:16;;;;;;;40.92;23.17;;;0.30;99.90;;;;;;4996488;28;20045;-60
2021/12/17 05:20:49;;;;;;;51.63;23.95;;;0.30;99.90;;;;;;5019218;28;20045;-60
2021/12/17 05:23:24;;;;;;;45.53;23.90;;;0.30;99.90;;;;;;5013690;28;20132;-60
2021/12/17 05:25:51;;;;;;;43.33;23.00;;;0.20;99.90;;;;;;4997502;28;20095;-60
2021/12/17 05:28:20;;;;;;;38.05;22.38;;;0.20;99.90;;;;;;4994356;28;20054;-59
2021/12/17 05:30:52;;;;;;;43.65;24.00;;;0.20;99.90;;;;;;4993795;28;20057;-59
2021/12/17 05:33:21;;;;;;;44.20;24.17;;;0.20;99.90;;;;;;4992700;28;20513;-60
2021/12/17 05:35:49;;;;;;;43.17;24.55;;;0.20;99.90;;;;;;4994672;28;20042;-59
2021/12/17 05:38:18;;;;;;;42.15;22.70;;;0.20;99.90;;;;;;4993957;28;20066;-59
2021/12/17 05:40:46;;;;;;;39.60;22.15;;;0.20;99.90;;;;;;4992642;28;20045;-60
2021/12/17 05:43:15;;;;;;;40.70;22.45;;;0.20;99.90;;;;;;4993777;28;20160;-60
2021/12/17 05:48:16;;;;;;;47.15;24.33;;;0.10;99.90;;;;;;4996017;28;20038;-60
2021/12/17 05:50:45;;;;;;;42.80;23.05;;;0.10;99.90;;;;;;5014499;28;20732;-60
2021/12/17 05:53:12;;;;;;;41.35;22.38;;;0.10;99.90;;;;;;5014461;28;20140;-59
2021/12/17 05:55:39;;;;;;;35.28;20.13;;;0.10;99.90;;;;;;4999137;28;20045;-60
2021/12/17 05:58:08;;;;;;;42.47;22.58;;;0.10;99.90;;;;;;5015502;28;20481;-60
2021/12/17 06:00:40;;;;;;;39.63;21.13;;;0.00;99.90;;;;;;5010696;28;20049;-59
2021/12/17 06:03:28;;;;;;;40.50;21.83;;;0.10;99.90;;;;;;4994636;28;20453;-60
2021/12/17 06:06:03;;;;;;;43.13;21.90;;;0.10;99.90;;;;;;4993893;28;20042;-60
2021/12/17 06:08:30;;;;;;;37.72;22.27;;;0.10;99.90;;;;;;4992672;28;20378;-60
2021/12/17 06:10:57;;;;;;;38.97;22.15;;;0.10;99.90;;;;;;4993070;28;20547;-60
2021/12/17 06:13:24;;;;;;;39.28;21.58;;;0.00;99.90;;;;;;4993102;28;20416;-61
2021/12/17 06:15:51;;;;;;;42.17;22.80;;;0.00;99.90;;;;;;4992730;28;20396;-61
2021/12/17 06:18:18;;;;;;;;;;;0.00;99.90;;;;;;5012486;28;20060;-60
2021/12/17 06:20:45;;;;;;;42.83;22.38;;;0.00;99.90;;;;;;5012286;28;20451;-61
2021/12/17 06:23:12;;;;;;;39.00;22.20;;;0.00;99.90;;;;;;5009434;28;20417;-60
2021/12/17 06:25:39;;;;;;;38.67;20.80;;;0.00;99.90;;;;;;4976939;28;20046;-61
2021/12/17 06:28:06;;;;;;;38.92;22.00;;;-0.10;99.90;;;;;;4994195;28;20077;-60
2021/12/17 06:30:33;;;;;;;39.03;22.45;;;-0.10;99.90;;;;;;4991610;28;20053;-61
2021/12/17 06:33:01;;;;;;;37.83;21.60;;;-0.10;99.90;;;;;;4991502;28;20159;-62
2021/12/17 06:35:32;;;;;;;36.80;20.42;;;-0.10;99.90;;;;;;4991316;28;20057;-61
2021/12/17 06:37:59;;;;;;;37.15;21.17;;;-0.20;99.90;;;;;;4991948;28;20050;-61
2021/12/17 06:40:29;;;;;;;36.22;21.63;;;-0.20;99.90;;;;;;4991470;28;20056;-61
2021/12/17 06:42:56;;;;;;;37.85;20.52;;;-0.30;99.90;;;;;;4993943;28;20492;-61
2021/12/17 06:45:39;;;;;;;34.53;19.58;;;-0.30;99.90;;;;;;4991183;28;20549;-61
2021/12/17 06:48:07;;;;;;;33.90;19.08;;;-0.30;99.90;;;;;;4993846;28;20231;-61
2021/12/17 07:06:44;;;;;;;38.15;21.45;;;-0.40;99.90;;;;;;4991791;28;20445;-65
2021/12/17 07:20:57;;;;;;;36.28;21.13;;;-0.40;99.90;;;;;;5010711;28;20045;-56
2021/12/17 07:34:51;;;;;;;35.67;20.30;;;-0.30;99.90;;;;;;5009653;28;20050;-57
2021/12/17 07:39:50;;;;;;;44.03;24.23;;;0.10;99.90;;;;;;5010866;28;20084;-57
2021/12/17 07:42:20;;;;;;;37.45;21.92;;;0.30;99.90;;;;;;5010757;28;20075;-57
2021/12/17 07:44:53;;;;;;;40.72;22.40;;;0.50;99.90;;;;;;5012431;28;20618;-56
2021/12/17 07:47:38;;;;;;;35.22;20.25;;;0.70;99.90;;;;;;5009234;28;20398;-57
2021/12/17 07:50:26;;;;;;;37.80;20.67;;;0.90;99.90;;;;;;5009956;28;20053;-57
2021/12/17 07:53:14;;;;;;;25.05;14.43;;;1.10;99.90;;;;;;5001157;28;20570;-55
2021/12/17 07:56:02;;;;;;;32.25;18.23;;;1.20;99.90;;;;;;5005245;28;20549;-54
2021/12/17 07:58:33;;;;;;;34.63;19.60;;;1.30;99.90;;;;;;4990963;28;20141;-55
2021/12/17 08:01:00;;;;;;;;;;;1.30;99.90;;;;;;5009248;28;20053;-56
2021/12/17 08:03:27;;;;;;;30.85;18.40;;;1.20;99.90;;;;;;5010653;28;19925;-54
2021/12/17 08:05:59;;;;;;;28.25;16.30;;;1.20;99.90;;;;;;5009874;28;20068;-54
2021/12/17 08:08:27;;;;;;;35.67;19.60;;;1.00;99.90;;;;;;5010770;28;20060;-54
2021/12/17 08:11:22;;;;;;;28.75;18.92;;;0.90;99.90;;;;;;5011141;28;20049;-55
2021/12/17 08:13:51;;;;;;;31.80;19.33;;;0.80;99.90;;;;;;5010743;28;20053;-55
2021/12/17 08:19:06;;;;;;;31.30;18.50;;;0.70;99.90;;;;;;5012551;28;20042;-57
2021/12/17 08:32:07;;;;;;;28.80;16.45;;;0.40;99.90;;;;;;5014171;28;20073;-56
2021/12/17 08:34:46;;;;;;;30.10;17.52;;;0.40;99.90;;;;;;5016413;28;20151;-57
2021/12/17 08:37:14;;;;;;;32.45;18.73;;;0.30;99.90;;;;;;4991589;28;20124;-58
2021/12/17 08:39:44;;;;;;;31.73;18.60;;;0.40;99.90;;;;;;4990859;28;20510;-57
2021/12/17 08:42:31;;;;;;;28.35;16.58;;;0.30;99.90;;;;;;4993472;28;20521;-57
2021/12/17 08:45:00;;;;;;;32.53;18.42;;;0.30;99.90;;;;;;5002528;28;20049;-57
2021/12/17 08:47:47;;;;;;;32.78;17.80;;;0.20;99.90;;;;;;5012249;28;20548;-55
2021/12/17 08:50:24;;;;;;;30.65;17.33;;;0.20;99.90;;;;;;5005918;28;20557;-55
2021/12/17 08:52:54;;;;;;;28.27;17.35;;;0.20;99.90;;;;;;4990625;28;20050;-55
2021/12/17 08:55:21;;;;;;;;;;;0.20;99.90;;;;;;4993893;28;20042;-57
2021/12/17 08:57:48;;;;;;;30.93;17.70;;;0.20;99.90;;;;;;4991756;28;19931;-56
2021/12/17 09:00:15;;;;;;;33.80;19.05;;;0.20;99.90;;;;;;4991592;28;20584;-56
2021/12/17 09:02:59;;;;;;;31.88;17.55;;;0.20;99.90;;;;;;5007440;28;20458;-56
2021/12/17 09:05:44;;;;;;;30.40;16.80;;;0.20;99.90;;;;;;4996092;28;20662;-56
2021/12/17 09:08:16;;;;;;;32.38;18.42;;;0.20;99.90;;;;;;4993999;28;20084;-54
2021/12/17 09:10:51;;;;;;;31.33;17.95;;;0.20;99.90;;;;;;4994730;28;20535;-55
2021/12/17 09:13:20;;;;;;;33.33;18.80;;;0.20;99.90;;;;;;4994500;28;20050;-54
2021/12/17 09:15:47;;;;;;;30.63;17.50;;;0.30;99.90;;;;;;4995057;28;20433;-55
2021/12/17 09:18:33;;;;;;;34.90;19.25;;;0.30;99.90;;;;;;5005580;28;20050;-55
2021/12/17 09:21:13;;;;;;;28.30;16.60;;;0.30;99.90;;;;;;5009937;28;20049;-54
2021/12/17 09:24:06;;;;;;;32.40;18.65;;;0.30;99.90;;;;;;4994378;28;20354;-55
2021/12/17 09:26:53;;;;;;;28.58;17.45;;;0.40;99.90;;;;;;5011788;28;20405;-54
2021/12/17 09:29:25;;;;;;;34.78;19.17;;;0.40;99.90;;;;;;5013520;28;20225;-54
2021/12/17 09:31:51;;;;;;;34.83;19.55;;;0.40;99.90;;;;;;5015112;28;20594;-54
2021/12/17 09:34:18;;;;;;;;;;;0.50;99.90;;;;;;5014860;28;20049;-54
2021/12/17 09:36:45;;;;;;;34.55;19.52;;;0.50;99.90;;;;;;5015812;28;19936;-54
2021/12/17 09:39:12;;;;;;;33.70;19.33;;;0.50;99.90;;;;;;5013532;28;20045;-54
2021/12/17 09:41:40;;;;;;;;;;;0.50;99.90;;;;;;5016968;28;20056;-54
2021/12/17 09:44:06;;;;;;;34.60;18.73;;;0.60;99.90;;;;;;5014822;28;19932;-53
2021/12/17 09:46:33;;;;;;;;;;;0.60;99.90;;;;;;5017031;28;20042;-53
2021/12/17 09:49:00;;;;;;;37.13;19.85;;;0.60;99.90;;;;;;5013526;28;20379;-54
2021/12/17 09:51:27;;;;;;;;;;;0.60;99.90;;;;;;5015534;28;20083;-55
2021/12/17 09:53:54;;;;;;;30.43;18.03;;;0.60;99.90;;;;;;5015396;28;19929;-54
2021/12/17 09:56:20;;;;;;;;;;;0.60;99.90;;;;;;5015991;28;20654;-52
2021/12/17 09:58:48;;;;;;;36.33;17.70;;;0.60;99.90;;;;;;5014891;28;19929;-54
2021/12/17 10:01:14;;;;;;;34.65;19.27;;;0.70;99.90;;;;;;5015265;28;20095;-56
2021/12/17 10:03:41;;;;;;;31.92;17.67;;;0.70;99.90;;;;;;5015219;28;20121;-56
2021/12/17 10:06:22;;;;;;;30.83;17.38;;;0.70;99.90;;;;;;5014688;28;20042;-56
2021/12/17 10:08:50;;;;;;;34.25;20.05;;;0.80;99.90;;;;;;5015144;28;20056;-56
2021/12/17 10:11:19;;;;;;;33.22;18.80;;;0.80;99.90;;;;;;5029090;28;20053;-56
2021/12/17 10:13:47;;;;;;;31.40;20.13;;;0.80;99.90;;;;;;5014803;28;20117;-59
2021/12/17 10:16:20;;;;;;;34.92;19.88;;;0.80;99.90;;;;;;5014752;28;20053;-58
2021/12/17 10:18:49;;;;;;;35.05;19.42;;;0.90;99.90;;;;;;5014294;28;20044;-58
2021/12/17 10:21:19;;;;;;;33.17;19.40;;;0.90;99.90;;;;;;5013895;28;20045;-59
2021/12/17 10:23:47;;;;;;;38.58;21.55;;;0.90;99.90;;;;;;4995433;28;20321;-58
2021/12/17 10:26:17;;;;;;;39.63;20.73;;;0.90;99.90;;;;;;4995810;28;20042;-57
2021/12/17 10:29:03;;;;;;;36.40;21.33;;;0.90;99.90;;;;;;4994782;28;20528;-57
2021/12/17 10:31:35;;;;;;;38.40;20.67;;;0.90;99.90;;;;;;4994999;28;20064;-55
2021/12/17 10:34:05;;;;;;;40.15;22.10;;;0.90;99.90;;;;;;4993846;28;20054;-55
2021/12/17 10:36:32;;;;;;;35.95;21.25;;;1.00;99.90;;;;;;5009788;28;20123;-53
2021/12/17 10:39:20;;;;;;;40.60;21.50;;;1.00;99.90;;;;;;5014236;28;20089;-57
2021/12/17 10:41:48;;;;;;;34.92;19.55;;;1.10;99.90;;;;;;5015517;28;20457;-57
2021/12/17 10:44:15;;;;;;;36.00;20.02;;;1.10;99.90;;;;;;5014110;28;20099;-57
2021/12/17 10:47:08;;;;;;;39.28;21.17;;;1.20;99.90;;;;;;5014687;28;20049;-57
2021/12/17 10:49:35;;;;;;;35.95;20.48;;;1.20;99.90;;;;;;5012649;28;20689;-57
2021/12/17 10:52:08;;;;;;;42.72;21.58;;;1.20;99.90;;;;;;5029006;28;20464;-57
2021/12/17 10:54:35;;;;;;;36.03;19.17;;;1.30;99.90;;;;;;5014166;28;20057;-57
2021/12/17 10:57:06;;;;;;;;;;;1.30;99.90;;;;;;5015052;28;20046;-57
2021/12/17 10:59:36;;;;;;;34.95;20.30;;;1.40;99.90;;;;;;5012948;28;19936;-57
2021/12/17 11:02:12;;;;;;;33.60;19.42;;;1.40;99.90;;;;;;5013921;28;20112;-57
2021/12/17 11:04:43;;;;;;;34.80;20.48;;;1.40;99.90;;;;;;5010529;28;20281;-57
2021/12/17 11:07:16;;;;;;;35.15;20.05;;;1.40;99.90;;;;;;5015123;28;20034;-57
2021/12/17 11:09:57;;;;;;;38.03;20.92;;;1.50;99.90;;;;;;5013223;28;20053;-57
2021/12/17 11:12:29;;;;;;;41.97;22.15;;;1.50;99.90;;;;;;5012909;28;20331;-57
2021/12/17 11:15:19;;;;;;;40.85;21.23;;;1.50;99.90;;;;;;5014342;28;20557;-55
2021/12/17 11:17:56;;;;;;;44.85;20.75;;;1.50;99.90;;;;;;5014859;28;20045;-54
2021/12/17 11:20:30;;;;;;;37.17;21.67;;;1.50;99.90;;;;;;4993019;28;20041;-56
2021/12/17 11:23:08;;;;;;;36.72;19.67;;;1.50;99.90;;;;;;5011873;28;20041;-57
2021/12/17 11:25:37;;;;;;;36.53;20.45;;;1.50;99.90;;;;;;5013985;28;20505;-56
2021/12/17 11:28:07;;;;;;;41.67;20.35;;;1.50;99.90;;;;;;5014129;28;20056;-55
2021/12/17 11:30:36;;;;;;;36.50;19.13;;;1.50;99.90;;;;;;5012243;28;20045;-56
2021/12/17 11:33:04;;;;;;;33.60;18.52;;;1.50;99.90;;;;;;5014394;28;20045;-56
2021/12/17 11:35:34;;;;;;;37.08;19.80;;;1.50;99.90;;;;;;5009815;28;20505;-56
2021/12/17 11:38:10;;;;;;;41.65;21.10;;;1.50;99.90;;;;;;5012210;28;20056;-56
2021/12/17 11:41:15;;;;;;;36.83;20.67;;;1.50;99.90;;;;;;5012825;28;20046;-56
2021/12/17 11:43:58;;;;;;;33.88;18.80;;;1.50;99.90;;;;;;5029415;28;20049;-59
2021/12/17 11:46:34;;;;;;;35.10;18.98;;;1.50;99.90;;;;;;5014794;28;20461;-56
2021/12/17 11:49:12;;;;;;;38.80;19.40;;;1.50;99.90;;;;;;5011319;28;20045;-55
2021/12/17 11:51:39;;;;;;;38.30;19.48;;;1.60;99.90;;;;;;5013435;28;20049;-55
2021/12/17 11:54:14;;;;;;;35.95;19.35;;;1.60;99.90;;;;;;5012124;28;20053;-56
2021/12/17 11:56:47;;;;;;;31.27;17.70;;;1.60;99.90;;;;;;5012329;28;20049;-54
2021/12/17 11:59:27;;;;;;;34.95;20.17;;;1.70;99.90;;;;;;5013201;28;20046;-51
2021/12/17 12:02:14;;;;;;;36.17;19.60;;;1.70;99.90;;;;;;5012681;28;20107;-57
2021/12/17 12:04:57;;;;;;;33.58;19.30;;;1.70;99.90;;;;;;5011105;28;20288;-57
2021/12/17 12:07:23;;;;;;;36.67;18.80;;;1.70;99.90;;;;;;5014249;28;20099;-58
2021/12/17 12:09:58;;;;;;;36.58;19.20;;;1.70;99.90;;;;;;5012442;28;20046;-58
2021/12/17 12:12:50;;;;;;;35.03;19.50;;;1.80;99.90;;;;;;5012711;28;20049;-58
2021/12/17 12:15:20;;;;;;;33.85;19.10;;;1.80;99.90;;;;;;5013440;28;20276;-58
2021/12/17 12:18:09;;;;;;;37.03;20.23;;;1.80;99.90;;;;;;5012171;28;20103;-58
2021/12/17 12:20:47;;;;;;;33.85;19.55;;;1.80;99.90;;;;;;4991829;28;20157;-58
2021/12/17 12:23:23;;;;;;;33.20;19.42;;;1.80;99.90;;;;;;5011653;28;20527;-58
2021/12/17 12:26:17;;;;;;;38.78;21.85;;;1.80;99.90;;;;;;5012972;28;20034;-58
2021/12/17 12:29:02;;;;;;;32.50;18.95;;;1.80;99.90;;;;;;5010545;28;20597;-58
2021/12/17 12:31:34;;;;;;;45.22;21.23;;;1.80;99.90;;;;;;5013938;28;20121;-58
2021/12/17 12:34:01;;;;;;;34.58;18.40;;;1.80;99.90;;;;;;5011155;28;20072;-58
2021/12/17 12:37:01;;;;;;;32.35;17.85;;;1.80;99.90;;;;;;5011532;28;20050;-57
2021/12/17 12:39:38;;;;;;;32.58;19.13;;;1.80;99.90;;;;;;5016797;28;20053;-58
2021/12/17 12:42:16;;;;;;;34.17;17.98;;;1.90;99.90;;;;;;5016334;28;20041;-58
2021/12/17 12:44:46;;;;;;;33.00;19.52;;;1.90;99.90;;;;;;5017246;28;20070;-57
2021/12/17 12:47:31;;;;;;;35.42;19.33;;;1.90;99.90;;;;;;5017883;28;20725;-57
2021/12/17 12:50:06;;;;;;;33.42;20.08;;;1.90;99.90;;;;;;5015081;28;20484;-58
2021/12/17 12:52:44;;;;;;;33.63;19.50;;;1.90;99.90;;;;;;5017152;28;20469;-58
2021/12/17 12:55:28;;;;;;;31.10;17.83;;;1.90;99.90;;;;;;5016857;28;20592;-58
2021/12/17 12:58:05;;;;;;;31.92;18.63;;;1.90;99.90;;;;;;5016256;28;20480;-60
2021/12/17 13:00:48;;;;;;;31.60;18.50;;;1.90;99.90;;;;;;5016287;28;20497;-61
2021/12/17 13:03:23;;;;;;;32.10;18.13;;;1.90;99.90;;;;;;5015428;28;20548;-56
2021/12/17 13:05:50;;;;;;;33.38;18.30;;;1.90;99.90;;;;;;5015132;28;20132;-56
2021/12/17 13:08:19;;;;;;;33.35;19.60;;;1.80;99.90;;;;;;5016572;28;20045;-56
2021/12/17 13:10:50;;;;;;;32.58;17.90;;;1.80;99.90;;;;;;5015028;28;20107;-56
2021/12/17 13:24:12;;;;;;;32.45;17.23;;;1.60;99.90;;;;;;5016277;28;20267;-56
2021/12/17 13:26:44;;;;;;;32.92;19.13;;;1.60;99.90;;;;;;5016206;28;20045;-56
2021/12/17 13:29:18;;;;;;;37.30;21.17;;;1.60;99.90;;;;;;5015031;28;20511;-56
2021/12/17 13:31:47;;;;;;;34.63;18.75;;;1.60;99.90;;;;;;5016873;28;20061;-53
2021/12/17 13:34:23;;;;;;;32.97;17.45;;;1.60;99.90;;;;;;5014378;28;20080;-54
2021/12/17 13:36:54;;;;;;;33.92;18.00;;;1.60;99.90;;;;;;5016286;28;20033;-53
2021/12/17 13:39:24;;;;;;;32.40;18.25;;;1.60;99.90;;;;;;5012788;28;20042;-55
2021/12/17 13:41:51;;;;;;;32.60;18.08;;;1.60;99.90;;;;;;5015117;28;20041;-54
2021/12/17 13:44:33;;;;;;;34.13;18.88;;;1.60;99.90;;;;;;5015743;28;20052;-55
2021/12/17 13:47:10;;;;;;;32.65;18.85;;;1.60;99.90;;;;;;5008623;28;20053;-54
2021/12/17 13:49:38;;;;;;;36.85;19.25;;;1.50;99.90;;;;;;4993937;28;20069;-56
2021/12/17 13:52:05;;;;;;;33.97;16.63;;;1.50;99.90;;;;;;4996291;28;20108;-56
2021/12/17 13:54:33;;;;;;;34.85;17.25;;;1.50;99.90;;;;;;4995872;28;20084;-55
2021/12/17 13:57:02;;;;;;;27.98;16.17;;;1.60;99.90;;;;;;4996398;28;20104;-56
2021/12/17 13:59:30;;;;;;;34.08;19.42;;;1.60;99.90;;;;;;4995871;28;20042;-55
2021/12/17 14:01:57;;;;;;;28.33;17.80;;;1.50;99.90;;;;;;4997403;28;20034;-55
2021/12/17 14:04:24;;;;;;;26.92;15.35;;;1.60;99.90;;;;;;4978804;28;20042;-56
2021/12/17 14:06:53;;;;;;;33.15;18.73;;;1.50;99.90;;;;;;4996789;28;20540;-55
2021/12/17 14:09:21;;;;;;;37.00;19.95;;;1.50;99.90;;;;;;4994419;28;20112;-56
2021/12/17 14:11:48;;;;;;;35.75;20.15;;;1.60;99.90;;;;;;4995785;28;20050;-57
2021/12/17 14:14:35;;;;;;;34.22;19.65;;;1.50;99.90;;;;;;4996219;28;20520;-56
2021/12/17 14:17:05;;;;;;;31.95;18.98;;;1.50;99.90;;;;;;5004142;28;20060;-56
2021/12/17 14:19:45;;;;;;;28.88;17.90;;;1.50;99.90;;;;;;5001228;28;20042;-55
2021/12/17 14:22:29;;;;;;;32.92;18.33;;;1.40;99.90;;;;;;5002122;28;20563;-56
2021/12/17 14:24:57;;;;;;;32.67;18.92;;;1.40;99.90;;;;;;5014632;28;20334;-56
2021/12/17 14:27:47;;;;;;;34.75;19.77;;;1.40;99.90;;;;;;5014942;28;20507;-55
2021/12/17 14:30:14;;;;;;;37.03;20.55;;;1.40;99.90;;;;;;5012526;28;20049;-56
2021/12/17 14:32:46;;;;;;;35.08;20.17;;;1.30;99.90;;;;;;5014640;28;20064;-55
2021/12/17 14:35:14;;;;;;;37.22;19.92;;;1.30;99.90;;;;;;5027483;28;20770;-55
2021/12/17 14:37:51;;;;;;;37.97;19.40;;;1.30;99.90;;;;;;5015959;28;20045;-56
2021/12/17 14:40:41;;;;;;;32.17;18.40;;;1.30;99.90;;;;;;5013027;28;20630;-56
2021/12/17 14:44:05;;;;;;;36.92;19.45;;;1.30;99.90;;;;;;5015208;28;20500;-56
2021/12/17 14:46:47;;;;;;;28.52;17.73;;;1.30;99.90;;;;;;5014105;28;20127;-56
2021/12/17 15:06:00;;;;;;;29.30;17.08;;;1.30;99.90;;;;;;4993691;28;20517;-56
2021/12/17 15:08:27;;;;;;;32.63;19.75;;;1.20;99.90;;;;;;4993879;28;20101;-54
2021/12/17 15:10:55;;;;;;;32.97;18.50;;;1.20;99.90;;;;;;4993351;28;20280;-55
2021/12/17 15:13:22;;;;;;;31.95;18.08;;;1.20;99.90;;;;;;4994851;28;20046;-54
2021/12/17 15:15:49;;;;;;;33.55;18.58;;;1.20;99.90;;;;;;4994091;28;20060;-54
2021/12/17 15:18:19;;;;;;;33.13;17.88;;;1.20;99.90;;;;;;5009289;28;20104;-55
2021/12/17 15:20:53;;;;;;;33.38;19.35;;;1.20;99.90;;;;;;4993489;28;20045;-55
2021/12/17 15:23:21;;;;;;;32.97;19.38;;;1.20;99.90;;;;;;5014647;28;20103;-55
2021/12/17 15:25:49;;;;;;;28.67;17.42;;;1.20;99.90;;;;;;5015313;28;20041;-54
2021/12/17 15:28:18;;;;;;;32.53;18.10;;;1.20;99.90;;;;;;5015435;28;20512;-55
2021/12/17 15:30:48;;;;;;;34.72;19.75;;;1.10;99.90;;;;;;5012488;28;20052;-54
2021/12/17 15:33:16;;;;;;;37.17;18.75;;;1.10;99.90;;;;;;5013947;28;20446;-54
2021/12/17 15:35:44;;;;;;;37.67;19.50;;;1.10;99.90;;;;;;5012741;28;20037;-55
2021/12/17 15:38:12;;;;;;;36.20;20.00;;;1.10;99.90;;;;;;5014583;28;20536;-55
2021/12/17 15:40:41;;;;;;;32.80;18.95;;;1.10;99.90;;;;;;5012739;28;20068;-55
2021/12/17 15:43:09;;;;;;;34.50;19.70;;;1.10;99.90;;;;;;5014463;28;20044;-54
2021/12/17 15:45:40;;;;;;;40.33;21.13;;;1.00;99.90;;;;;;5013452;28;20252;-54
2021/12/17 15:48:09;;;;;;;36.13;20.13;;;1.00;99.90;;;;;;5014156;28;20159;-55
2021/12/17 15:50:56;;;;;;;35.15;20.42;;;1.00;99.90;;;;;;5012075;28;20623;-55
2021/12/17 15:53:23;;;;;;;39.13;20.05;;;1.00;99.90;;;;;;5014144;28;20052;-55
2021/12/17 15:55:50;;;;;;;;;;;1.00;99.90;;;;;;5013629;28;20053;-48
2021/12/17 15:58:17;;;;;;;32.92;18.20;;;1.00;99.90;;;;;;5013968;28;20323;-61
2021/12/17 16:00:48;;;;;;;32.60;18.38;;;0.90;99.90;;;;;;5011382;28;20047;-60
2021/12/17 16:03:19;;;;;;;34.97;17.92;;;0.90;99.90;;;;;;5014278;28;20072;-61
2021/12/17 16:05:46;;;;;;;41.53;20.13;;;0.90;99.90;;;;;;5011767;28;20320;-62
2021/12/17 16:08:13;;;;;;;37.20;20.13;;;0.80;99.90;;;;;;5012084;28;20532;-62
2021/12/17 16:21:46;;;;;;;40.38;20.30;;;0.70;99.90;;;;;;5011401;28;20046;-63
2021/12/17 16:24:13;;;;;;;36.08;19.58;;;0.70;99.90;;;;;;5012765;28;20104;-62
2021/12/17 16:26:40;;;;;;;41.35;20.88;;;0.70;99.90;;;;;;5013377;28;20057;-65
2021/12/17 16:29:08;;;;;;;39.88;20.50;;;0.60;99.90;;;;;;5013347;28;20125;-61
2021/12/17 16:31:35;;;;;;;45.65;21.90;;;0.60;99.90;;;;;;5012542;28;20088;-63
2021/12/17 16:34:04;;;;;;;36.80;20.05;;;0.60;99.90;;;;;;5011501;28;20528;-61
2021/12/17 16:36:33;;;;;;;35.95;20.00;;;0.60;99.90;;;;;;5012209;28;20095;-61
2021/12/17 16:39:02;;;;;;;37.95;21.20;;;0.60;99.90;;;;;;5012340;28;20553;-61
2021/12/17 16:41:29;;;;;;;41.95;22.30;;;0.60;99.90;;;;;;5013362;28;20049;-62
2021/12/17 16:44:03;;;;;;;37.35;21.70;;;0.60;99.90;;;;;;5013846;28;20572;-61